createdAt,value
2018-05-03T15:49:45.143Z,17.50
2018-05-03T15:51:47.831Z,17.60
2018-05-03T15:53:50.536Z,17.30
2018-05-03T15:55:53.227Z,17.50
2018-05-03T15:57:55.968Z,17.40
2018-05-03T15:59:58.645Z,17.20
2018-05-03T16:02:01.328Z,17.20
2018-05-03T16:04:04.053Z,17.00
2018-05-03T16:06:06.832Z,17.00
2018-05-03T16:08:09.522Z,16.90
2018-05-03T16:10:13.002Z,17.20
2018-05-03T16:12:15.683Z,17.20
2018-05-03T16:14:18.467Z,17.10
2018-05-03T16:16:21.172Z,17.00
2018-05-03T16:18:23.889Z,16.80
2018-05-03T16:20:26.679Z,16.60
2018-05-03T16:22:29.359Z,16.30
2018-05-03T16:24:32.048Z,16.20
2018-05-03T16:26:43.425Z,16.10
2018-05-03T16:28:46.144Z,16.10
2018-05-03T16:30:48.867Z,16.10
2018-05-03T16:32:51.583Z,16.10
2018-05-03T16:34:54.318Z,16.10
2018-05-03T16:36:57.036Z,16.00
2018-05-03T16:38:59.747Z,16.00
2018-05-03T16:41:02.451Z,15.90
2018-05-03T16:43:05.153Z,16.00
2018-05-03T16:45:08.608Z,16.20
2018-05-03T16:47:11.372Z,16.20
2018-05-03T16:49:14.042Z,16.20
2018-05-03T16:51:16.755Z,16.30
2018-05-03T16:53:19.482Z,16.30
2018-05-03T16:55:23.215Z,16.20
2018-05-03T16:57:25.944Z,16.20
2018-05-03T16:59:28.704Z,16.20
2018-05-03T17:01:31.418Z,16.30
2018-05-03T17:03:34.913Z,16.30
2018-05-03T17:05:37.622Z,16.30
2018-05-03T17:07:40.346Z,16.20
2018-05-03T17:09:43.091Z,16.10
2018-05-03T17:11:45.802Z,15.90
2018-05-03T17:13:48.511Z,16.00
2018-05-03T17:15:51.177Z,16.00
2018-05-03T17:17:53.885Z,16.10
2018-05-03T17:19:56.579Z,15.90
2018-05-03T17:21:59.264Z,15.90
2018-05-03T17:24:01.992Z,15.90
2018-05-03T17:26:04.709Z,15.80
2018-05-03T17:28:07.432Z,16.00
2018-05-03T17:30:10.130Z,16.10
2018-05-03T17:32:13.714Z,15.90
2018-05-03T17:34:16.426Z,15.90
2018-05-03T17:36:19.123Z,15.80
2018-05-03T17:38:22.616Z,15.70
2018-05-03T17:40:25.321Z,15.70
2018-05-03T17:42:28.017Z,15.70
2018-05-03T17:44:30.829Z,15.60
2018-05-03T17:46:33.506Z,15.70
2018-05-03T17:48:36.239Z,15.60
2018-05-03T17:50:38.928Z,15.60
2018-05-03T17:52:41.647Z,15.60
2018-05-03T17:54:44.371Z,15.50
2018-05-03T17:56:47.060Z,15.40
2018-05-03T17:58:49.783Z,15.30
2018-05-03T18:00:52.460Z,15.30
2018-05-03T18:02:55.156Z,15.30
2018-05-03T18:04:58.656Z,15.10
2018-05-03T18:07:02.100Z,15.10
2018-05-03T18:09:05.778Z,15.10
2018-05-03T18:11:08.454Z,15.00
2018-05-03T18:13:11.133Z,15.00
2018-05-03T18:15:13.826Z,15.00
2018-05-03T18:17:16.486Z,15.00
2018-05-03T18:19:19.199Z,14.90
2018-05-03T18:21:21.950Z,14.80
2018-05-03T18:23:24.841Z,14.70
2018-05-03T18:25:27.568Z,14.70
2018-05-03T18:27:31.044Z,14.70
2018-05-03T18:29:33.787Z,14.70
2018-05-03T18:31:36.531Z,14.50
2018-05-03T18:33:39.245Z,14.50
2018-05-03T18:35:41.956Z,14.50
2018-05-03T18:37:45.424Z,14.40
2018-05-03T18:39:48.472Z,14.30
2018-05-03T18:41:51.193Z,14.30
2018-05-03T18:43:53.922Z,14.20
2018-05-03T18:45:56.640Z,14.20
2018-05-03T18:47:59.406Z,14.20
2018-05-03T18:50:02.076Z,14.10
2018-05-03T18:52:04.814Z,14.10
2018-05-03T18:54:07.542Z,14.00
2018-05-03T18:56:10.513Z,13.90
2018-05-03T18:58:13.235Z,13.80
2018-05-03T19:00:15.958Z,13.80
2018-05-03T19:02:18.656Z,13.70
2018-05-03T19:04:21.318Z,13.80
2018-05-03T19:06:24.090Z,13.80
2018-05-03T19:08:26.815Z,13.70
2018-05-03T19:10:29.551Z,13.60
2018-05-03T19:12:32.268Z,13.50
2018-05-03T19:14:34.998Z,13.50
2018-05-03T19:16:37.721Z,13.40
2018-05-03T19:18:41.278Z,13.30
2018-05-03T19:20:44.316Z,13.30
2018-05-03T19:22:47.066Z,13.40
2018-05-03T19:24:49.864Z,13.20
2018-05-03T19:26:52.611Z,13.20
2018-05-03T19:28:55.352Z,13.20
2018-05-03T19:30:58.143Z,13.10
2018-05-03T19:33:00.868Z,13.10
2018-05-03T19:35:03.619Z,13.00
2018-05-03T19:37:06.324Z,13.00
2018-05-03T19:39:09.055Z,13.00
2018-05-03T19:41:11.801Z,12.90
2018-05-03T19:43:15.329Z,12.80
2018-05-03T19:45:18.095Z,12.70
2018-05-03T19:47:20.828Z,12.70
2018-05-03T19:49:23.523Z,12.60
2018-05-03T19:51:27.192Z,12.40
2018-05-03T19:53:29.897Z,12.40
2018-05-03T19:55:32.629Z,12.20
2018-05-03T19:57:35.290Z,12.10
2018-05-03T19:59:38.065Z,12.10
2018-05-03T20:01:40.837Z,12.10
2018-05-03T20:03:43.613Z,11.90
2018-05-03T20:05:46.316Z,11.70
2018-05-03T20:07:49.076Z,11.70
2018-05-03T20:09:52.674Z,11.80
2018-05-03T20:11:55.442Z,11.70
2018-05-03T20:13:58.158Z,11.70
2018-05-03T20:16:00.945Z,11.70
2018-05-03T20:18:03.643Z,11.60
2018-05-03T20:20:06.384Z,11.60
2018-05-03T20:22:09.106Z,11.50
2018-05-03T20:24:11.794Z,11.50
2018-05-03T20:26:15.255Z,11.60
2018-05-03T20:28:17.927Z,11.50
2018-05-03T20:30:20.680Z,11.60
2018-05-03T20:32:23.374Z,11.60
2018-05-03T20:34:26.055Z,11.60
2018-05-03T20:36:28.825Z,11.70
2018-05-03T20:38:31.518Z,11.70
2018-05-03T20:40:34.250Z,11.70
2018-05-03T20:42:36.922Z,11.60
2018-05-03T20:44:39.621Z,11.60
2018-05-03T20:46:42.349Z,11.70
2018-05-03T20:48:45.023Z,11.50
2018-05-03T20:50:47.807Z,11.60
2018-05-03T20:52:51.255Z,11.60
2018-05-03T20:54:53.940Z,11.50
2018-05-03T20:56:56.625Z,11.50
2018-05-03T20:58:59.339Z,11.50
2018-05-03T21:01:02.829Z,11.50
2018-05-03T21:03:06.276Z,11.50
2018-05-03T21:05:08.939Z,11.50
2018-05-03T21:07:11.639Z,11.50
2018-05-03T21:09:15.135Z,11.40
2018-05-03T21:11:17.844Z,11.40
2018-05-03T21:13:21.293Z,11.30
2018-05-03T21:15:24.023Z,11.30
2018-05-03T21:17:27.485Z,11.30
2018-05-03T21:19:30.205Z,11.30
2018-05-03T21:21:32.909Z,11.20
2018-05-03T21:23:35.566Z,11.20
2018-05-03T21:25:38.260Z,11.10
2018-05-03T21:27:40.941Z,11.10
2018-05-03T21:29:43.623Z,11.00
2018-05-03T21:31:46.329Z,10.90
2018-05-03T21:33:49.026Z,10.90
2018-05-03T21:35:52.464Z,10.80
2018-05-03T21:37:55.225Z,10.80
2018-05-03T21:39:57.946Z,10.70
2018-05-03T21:42:00.636Z,10.80
2018-05-03T21:44:03.389Z,10.80
2018-05-03T21:46:06.892Z,10.70
2018-05-03T21:48:09.624Z,10.70
2018-05-03T21:50:12.415Z,10.80
2018-05-03T21:52:15.133Z,10.70
2018-05-03T21:54:18.061Z,10.60
2018-05-03T21:56:20.727Z,10.50
2018-05-03T21:58:24.322Z,10.50
2018-05-03T22:00:27.758Z,10.50
2018-05-03T22:02:30.424Z,10.50
2018-05-03T22:04:33.120Z,10.50
2018-05-03T22:06:35.876Z,10.50
2018-05-03T22:08:38.555Z,10.50
2018-05-03T22:10:41.249Z,10.40
2018-05-03T22:12:43.905Z,10.40
2018-05-03T22:14:46.585Z,10.40
2018-05-03T22:16:49.260Z,10.40
2018-05-03T22:18:51.925Z,10.30
2018-05-03T22:20:54.629Z,10.20
2018-05-03T22:22:57.289Z,10.20
2018-05-03T22:24:59.981Z,10.20
2018-05-03T22:27:02.654Z,10.10
2018-05-03T22:29:05.416Z,10.10
2018-05-03T22:31:08.096Z,10.00
2018-05-03T22:33:10.757Z,10.00
2018-05-03T22:35:13.431Z,10.00
2018-05-03T22:37:16.080Z,9.90
2018-05-03T22:39:19.498Z,9.80
2018-05-03T22:41:22.174Z,9.80
2018-05-03T22:43:24.850Z,9.70
2018-05-03T22:45:27.532Z,9.70
2018-05-03T22:47:30.198Z,9.70
2018-05-03T22:49:32.873Z,9.60
2018-05-03T22:51:36.333Z,9.50
2018-05-03T22:53:38.992Z,9.50
2018-05-03T22:55:41.695Z,9.40
2018-05-03T22:57:44.370Z,9.40
2018-05-03T22:59:47.050Z,9.40
2018-05-03T23:01:49.748Z,9.30
2018-05-03T23:03:52.418Z,9.30
2018-05-03T23:05:55.861Z,9.30
2018-05-03T23:07:58.648Z,9.20
2018-05-03T23:10:01.309Z,9.20
2018-05-03T23:12:03.997Z,9.10
2018-05-03T23:14:06.681Z,9.10
2018-05-03T23:16:09.410Z,9.10
2018-05-03T23:18:12.069Z,9.10
2018-05-03T23:20:14.745Z,9.10
2018-05-03T23:22:17.447Z,9.10
2018-05-03T23:24:20.928Z,9.10
2018-05-03T23:26:24.392Z,9.10
2018-05-03T23:28:27.098Z,9.10
2018-05-03T23:30:30.612Z,9.20
2018-05-03T23:32:33.242Z,9.10
2018-05-03T23:34:35.916Z,9.10
2018-05-03T23:36:38.586Z,9.10
2018-05-03T23:38:41.281Z,9.00
2018-05-03T23:40:43.960Z,9.00
2018-05-03T23:42:46.668Z,8.90
2018-05-03T23:44:50.101Z,8.90
2018-05-03T23:46:52.813Z,8.90
2018-05-03T23:48:55.496Z,9.00
2018-05-03T23:50:58.951Z,9.00
2018-05-03T23:53:01.682Z,9.00
2018-05-03T23:55:05.131Z,8.90
2018-05-03T23:57:07.832Z,8.80
2018-05-03T23:59:10.568Z,8.80
